CheckWX is a tool to help pilots better visualize weather data.  It is not intended as a substitute for an official pre-flight weather briefing.

08:36:52 UTC

KLGU METAR
Logan-Cache Airport
Logan, Utah, USA
Current

46 mins ago

KLGU 170751Z AUTO 02003KT 10SM CLR 17/10 A2995 RMK AO2 SLP086 T01720100
Observed
Jul-17 @ 07:51 UTC
Wind
  • 020° at 3 KTS
Visibility
10 SM
Flight Rules
VFR
Cloud Levels
  • Clear skies
Temperature
17°C / 63°F
Dewpoint
10°C / 50°F
Humidity
64%
Altimeter
29.95" Hg
Pressure
1014.22 hPa
Previous

2 hours ago

KLGU 170651Z AUTO 19008KT 10SM CLR 20/09 A2992 RMK AO2 SLP074 T02000089 403330128
Observed
Jul-17 @ 06:51 UTC
Wind
  • 190° at 8 KTS
Visibility
10 SM
Flight Rules
VFR
Cloud Levels
  • Clear skies
Temperature
20°C / 68°F
Dewpoint
C / 48°F
Humidity
49%
Altimeter
29.92" Hg
Pressure
1013.22 hPa
Previous

3 hours ago

KLGU 170551Z AUTO 15005KT 10SM CLR 19/09 A2993 RMK AO2 SLP081 60000 T01890089 10333 20189 51017
Observed
Jul-17 @ 05:51 UTC
Wind
  • 150° at 5 KTS
Visibility
10 SM
Flight Rules
VFR
Cloud Levels
  • Clear skies
Temperature
19°C / 66°F
Dewpoint
C / 48°F
Humidity
52%
Altimeter
29.93" Hg
Pressure
1013.52 hPa